Time;durP1;ratioP1;P1;durP2;ratioP2;P2;SDS_P1;SDS_P2;PMS_P1;PMS_P2;Temp;Humidity;BMP_temperature;BMP_pressure;BME280_temperature;BME280_humidity;BME280_pressure;Samples;Min_cycle;Max_cycle;Signal;HPM_P1;HPM_P2
2021/12/02 00:01:38;;;;;;;1999.90;999.90;;;;;;;0.02;56.53;98578.44;4886655;28;96788;-70
2021/12/02 00:04:06;;;;;;;1999.90;999.90;;;;;;;0.04;56.20;98585.50;4904478;28;97634;-71
2021/12/02 00:06:33;;;;;;;1999.90;999.90;;;;;;;0.03;56.09;98582.81;4904820;28;97746;-74
2021/12/02 00:09:01;;;;;;;1999.90;999.90;;;;;;;0.03;56.16;98588.94;4903306;28;97733;-73
2021/12/02 00:11:29;;;;;;;1999.90;999.90;;;;;;;0.03;56.00;98594.16;4888740;28;97435;-72
2021/12/02 00:14:02;;;;;;;1999.90;999.90;;;;;;;-0.05;54.81;98600.03;4887895;28;97280;-73
2021/12/02 00:16:37;;;;;;;1999.90;999.90;;;;;;;-0.07;55.75;98592.16;4904723;28;99291;-73
2021/12/02 00:21:53;;;;;;;1999.90;999.90;;;;;;;-0.11;55.73;98603.34;4874954;28;98439;-74
2021/12/02 00:24:23;;;;;;;1999.90;999.90;;;;;;;-0.11;55.72;98629.50;4905282;28;97469;-72
2021/12/02 00:26:52;;;;;;;1999.90;999.90;;;;;;;-0.14;56.13;98620.69;4885660;28;98514;-74
2021/12/02 00:29:22;;;;;;;1999.90;999.90;;;;;;;-0.17;55.91;98637.13;4886775;28;99173;-75
2021/12/02 00:31:52;;;;;;;1999.90;999.90;;;;;;;-0.16;55.94;98636.31;4890287;28;96951;-72
2021/12/02 00:34:20;;;;;;;1999.90;999.90;;;;;;;-0.16;56.11;98632.81;4904563;28;97718;-77
2021/12/02 00:36:48;;;;;;;1999.90;999.90;;;;;;;-0.18;55.56;98650.16;4903825;28;97691;-73
2021/12/02 00:39:18;;;;;;;1999.90;999.90;;;;;;;-0.23;55.61;98652.63;4902096;28;96780;-74
2021/12/02 00:41:46;;;;;;;1999.90;999.90;;;;;;;-0.21;56.21;98658.78;4905485;28;98059;-71
2021/12/02 00:44:15;;;;;;;1999.90;999.90;;;;;;;-0.22;55.90;98664.88;4903338;28;97854;-74
2021/12/02 00:46:45;;;;;;;1999.90;999.90;;;;;;;-0.27;55.55;98669.09;4903950;28;98678;-72
2021/12/02 00:49:15;;;;;;;1999.90;999.90;;;;;;;-0.31;55.35;98680.28;4902832;28;97567;-80
2021/12/02 00:51:46;;;;;;;1999.90;999.90;;;;;;;-0.33;55.67;98671.50;4900955;28;97643;-73
2021/12/02 00:54:14;;;;;;;1999.90;999.90;;;;;;;-0.30;55.63;98665.50;4886560;28;96784;-71
2021/12/02 00:56:42;;;;;;;1999.90;999.90;;;;;;;-0.30;55.60;98668.09;4903921;28;98713;-73
2021/12/02 00:59:10;;;;;;;1999.90;999.90;;;;;;;-0.34;55.54;98671.47;4884261;28;100590;-72
2021/12/02 01:01:38;;;;;;;1999.90;999.90;;;;;;;-0.34;55.68;98669.75;4904224;28;97635;-72
2021/12/02 01:04:09;;;;;;;1999.90;999.90;;;;;;;-0.37;55.48;98681.78;4887452;28;99097;-73
2021/12/02 01:06:37;;;;;;;1999.90;999.90;;;;;;;-0.36;55.77;98697.53;4885571;28;98622;-71
2021/12/02 01:10:20;;;;;;;1999.90;999.90;;;;;;;-0.38;55.71;98675.72;4903561;28;97643;-74
2021/12/02 01:12:49;;;;;;;1999.90;999.90;;;;;;;-0.40;55.90;98689.53;4903697;28;96872;-73
2021/12/02 01:15:17;;;;;;;1999.90;999.90;;;;;;;-0.45;57.26;98712.94;4890903;28;96913;-71
2021/12/02 01:17:45;;;;;;;1999.90;999.90;;;;;;;-0.47;58.27;98687.59;4888676;28;100209;-71
2021/12/02 01:20:14;;;;;;;1999.90;999.90;;;;;;;-0.53;56.94;98693.50;4901563;28;97702;-73
2021/12/02 01:22:42;;;;;;;1999.90;999.90;;;;;;;-0.57;57.41;98716.84;4890654;28;97016;-73
2021/12/02 01:25:10;;;;;;;1999.90;999.90;;;;;;;-0.64;57.28;98715.78;4902963;28;96959;-72
2021/12/02 01:27:39;;;;;;;1999.90;999.90;;;;;;;-0.66;57.14;98701.78;4886973;28;99142;-75
2021/12/02 01:30:07;;;;;;;1999.90;999.90;;;;;;;-0.71;57.10;98724.25;4884887;28;100060;-73
2021/12/02 01:32:35;;;;;;;1999.90;999.90;;;;;;;-0.76;57.53;98725.84;4902973;28;97619;-73
2021/12/02 01:35:04;;;;;;;1999.90;999.90;;;;;;;-0.78;57.33;98730.13;4901842;28;97092;-72
2021/12/02 01:37:34;;;;;;;1999.90;999.90;;;;;;;-0.76;57.09;98736.28;4902747;28;98998;-71
2021/12/02 01:40:02;;;;;;;1999.90;999.90;;;;;;;-0.73;57.03;98738.09;4885954;28;97825;-71
2021/12/02 01:42:34;;;;;;;1999.90;999.90;;;;;;;-0.75;56.83;98753.72;4882060;28;97789;-71
2021/12/02 01:45:02;;;;;;;1999.90;999.90;;;;;;;-0.72;57.02;98739.88;4886371;28;97323;-71
2021/12/02 01:47:31;;;;;;;1999.90;999.90;;;;;;;-0.68;56.89;98754.81;4886415;28;97661;-73
2021/12/02 01:50:03;;;;;;;1999.90;999.90;;;;;;;-0.69;56.97;98746.09;4900498;28;98235;-70
2021/12/02 01:52:56;;;;;;;1999.90;999.90;;;;;;;-0.73;55.26;98764.19;4868332;28;98034;-71
2021/12/02 01:55:25;;;;;;;1999.90;999.90;;;;;;;-0.66;56.46;98760.94;4885452;28;96798;-71
2021/12/02 01:57:59;;;;;;;1999.90;999.90;;;;;;;-0.66;56.31;98755.72;4885844;28;99244;-75
2021/12/02 02:00:32;;;;;;;1999.90;999.90;;;;;;;-0.65;56.53;98771.47;4901792;28;97963;-70
2021/12/02 02:03:02;;;;;;;1999.90;999.90;;;;;;;-0.62;56.60;98762.81;4896329;28;96857;-74
2021/12/02 02:05:30;;;;;;;1999.90;999.90;;;;;;;-0.64;56.28;98768.00;4885859;28;97159;-72
2021/12/02 02:08:02;;;;;;;1999.90;999.90;;;;;;;-0.63;56.52;98772.41;4885101;28;97859;-71
2021/12/02 02:10:32;;;;;;;1999.90;999.90;;;;;;;-0.63;56.48;98784.56;4902167;28;97035;-72
2021/12/02 02:13:06;;;;;;;1999.90;999.90;;;;;;;-0.70;56.49;98788.69;4886532;28;97542;-72
2021/12/02 02:15:33;;;;;;;1999.90;999.90;;;;;;;-0.71;56.62;98791.25;4886206;28;96878;-73
2021/12/02 02:18:06;;;;;;;1999.90;999.90;;;;;;;-0.74;56.50;98789.44;4901643;28;97718;-74
2021/12/02 02:20:45;;;;;;;1999.90;999.90;;;;;;;-0.93;56.61;98820.94;4900496;28;96785;-74
2021/12/02 02:23:13;;;;;;;1999.90;999.90;;;;;;;-0.88;56.91;98814.16;4900508;28;97034;-72
2021/12/02 02:25:42;;;;;;;1999.90;999.90;;;;;;;-0.96;57.33;98811.28;4898476;28;97896;-76
2021/12/02 02:28:10;;;;;;;1999.90;999.90;;;;;;;-1.00;57.43;98808.53;4903240;28;98852;-74
2021/12/02 02:30:39;;;;;;;1999.90;999.90;;;;;;;-1.01;57.24;98817.16;4903247;28;98769;-73
2021/12/02 02:33:06;;;;;;;1999.90;999.90;;;;;;;-1.04;57.70;98817.06;4903098;28;97002;-73
2021/12/02 02:35:34;;;;;;;1999.90;999.90;;;;;;;-1.10;57.59;98840.34;4892482;28;97015;-72
2021/12/02 02:38:04;;;;;;;1999.90;999.90;;;;;;;-1.14;57.90;98830.66;4908811;28;97705;-73
2021/12/02 02:40:32;;;;;;;1999.90;999.90;;;;;;;-1.17;57.85;98847.06;4906300;28;97818;-73
2021/12/02 02:43:06;;;;;;;1999.90;999.90;;;;;;;-1.18;57.96;98831.38;4906380;28;96853;-73
2021/12/02 02:45:34;;;;;;;1999.90;999.90;;;;;;;-1.15;57.76;98834.06;4908654;28;98550;-71
2021/12/02 02:48:02;;;;;;;1999.90;999.90;;;;;;;-1.18;57.80;98839.19;4908555;28;97790;-75
2021/12/02 02:50:31;;;;;;;1999.90;999.90;;;;;;;-1.20;57.85;98846.97;4896031;28;98910;-75
2021/12/02 02:53:06;;;;;;;1999.90;999.90;;;;;;;-1.24;57.40;98833.75;4905341;28;97873;-71
2021/12/02 02:55:35;;;;;;;1999.90;999.90;;;;;;;-1.23;57.51;98853.78;4894141;28;97753;-72
2021/12/02 02:58:13;;;;;;;1999.90;999.90;;;;;;;-1.24;57.88;98852.91;4887693;28;98543;-70
2021/12/02 03:00:48;;;;;;;1999.90;999.90;;;;;;;-1.22;57.10;98863.38;4906578;28;97893;-73
2021/12/02 03:03:25;;;;;;;1999.90;999.90;;;;;;;-1.26;56.78;98854.56;4906292;28;97696;-71
2021/12/02 03:06:07;;;;;;;1999.90;999.90;;;;;;;-1.24;57.24;98855.50;4889023;28;96724;-72
2021/12/02 03:08:41;;;;;;;1999.90;999.90;;;;;;;-1.23;57.36;98866.84;4888082;28;99107;-73
2021/12/02 03:11:10;;;;;;;1999.90;999.90;;;;;;;-1.20;57.04;98866.94;4888852;28;99666;-72
2021/12/02 03:13:47;;;;;;;1999.90;999.90;;;;;;;-1.16;57.63;98868.84;4890653;28;97970;-71
2021/12/02 03:19:01;;;;;;;1999.90;999.90;;;;;;;-1.21;56.74;98865.16;4905965;28;98751;-71
2021/12/02 03:21:29;;;;;;;1999.90;999.90;;;;;;;-1.17;57.08;98877.47;4905107;28;98946;-74
2021/12/02 03:24:00;;;;;;;1999.90;999.90;;;;;;;-1.18;56.85;98876.63;4893826;28;97221;-74
2021/12/02 03:26:31;;;;;;;1999.90;999.90;;;;;;;-1.19;56.96;98885.25;4898861;28;97344;-71
2021/12/02 03:29:00;;;;;;;1999.90;999.90;;;;;;;-1.16;56.75;98881.88;4906482;28;97739;-72
2021/12/02 03:31:27;;;;;;;1999.90;999.90;;;;;;;-1.12;56.66;98892.47;4890828;28;100594;-73
2021/12/02 03:33:55;;;;;;;1999.90;999.90;;;;;;;-1.12;56.47;98902.00;4907901;28;97052;-74
2021/12/02 03:36:23;;;;;;;1999.90;999.90;;;;;;;-1.11;56.69;98901.19;4891550;28;97072;-73
2021/12/02 03:38:51;;;;;;;1999.90;999.90;;;;;;;-1.09;56.49;98907.38;4906585;28;98158;-72
2021/12/02 03:41:21;;;;;;;1999.90;999.90;;;;;;;-1.10;56.44;98896.03;4891201;28;99278;-70
2021/12/02 03:43:50;;;;;;;1999.90;999.90;;;;;;;-1.10;56.70;98914.28;4887641;28;97230;-75
2021/12/02 03:46:20;;;;;;;1999.90;999.90;;;;;;;-1.08;56.76;98914.34;4905942;28;96763;-75
2021/12/02 03:48:49;;;;;;;1999.90;999.90;;;;;;;-1.06;57.14;98923.13;4907302;28;97821;-72
2021/12/02 03:51:18;;;;;;;1999.90;999.90;;;;;;;-1.08;57.03;98909.13;4905097;28;99679;-71
2021/12/02 03:53:46;;;;;;;1999.90;999.90;;;;;;;-1.06;56.77;98912.69;4905718;28;97595;-72
2021/12/02 03:56:14;;;;;;;1999.90;999.90;;;;;;;-1.09;56.85;98920.41;4890210;28;97280;-72
2021/12/02 03:58:45;;;;;;;1999.90;999.90;;;;;;;-1.08;56.75;98906.50;4908145;28;97699;-73
2021/12/02 04:01:13;;;;;;;1999.90;999.90;;;;;;;-1.09;56.85;98913.47;4908569;28;97582;-71
2021/12/02 04:03:41;;;;;;;1999.90;999.90;;;;;;;-1.06;56.89;98913.59;4876079;28;97481;-72
2021/12/02 04:06:10;;;;;;;1999.90;999.90;;;;;;;-1.06;56.90;98920.50;4900141;28;96866;-71
2021/12/02 04:08:43;;;;;;;1999.90;999.90;;;;;;;-1.07;56.82;98916.16;4908468;28;97633;-70
2021/12/02 04:11:21;;;;;;;1999.90;999.90;;;;;;;-1.08;56.80;98912.63;4906378;28;97243;-71
2021/12/02 04:14:00;;;;;;;1999.90;999.90;;;;;;;-1.06;56.66;98920.50;4889039;28;97997;-74
2021/12/02 04:16:30;;;;;;;1999.90;999.90;;;;;;;-1.04;56.90;98908.41;4890139;28;98233;-71
2021/12/02 04:18:57;;;;;;;1999.90;999.90;;;;;;;-1.06;56.33;98934.47;4907531;28;97678;-72
2021/12/02 04:21:25;;;;;;;1999.90;999.90;;;;;;;-1.04;56.17;98924.06;4906060;28;99099;-70
2021/12/02 04:23:53;;;;;;;1999.90;999.90;;;;;;;-1.05;56.31;98931.00;4905546;28;97844;-73
2021/12/02 04:26:21;;;;;;;1999.90;999.90;;;;;;;-1.05;56.65;98930.13;4907995;28;96733;-74
2021/12/02 04:28:50;;;;;;;1999.90;999.90;;;;;;;-1.11;56.50;98940.34;4905285;28;98768;-74
2021/12/02 04:31:17;;;;;;;1999.90;999.90;;;;;;;-1.09;56.60;98947.41;4906527;28;98254;-74
2021/12/02 04:33:45;;;;;;;1999.90;999.90;;;;;;;-1.10;56.45;98963.88;4906213;28;97793;-72
2021/12/02 04:36:13;;;;;;;1999.90;999.90;;;;;;;-1.13;56.58;98945.50;4888227;28;97465;-74
2021/12/02 04:38:41;;;;;;;1999.90;999.90;;;;;;;-1.10;56.56;98943.00;4904136;28;97021;-72
2021/12/02 04:41:08;;;;;;;1999.90;999.90;;;;;;;-1.11;56.37;98946.47;4905822;28;97799;-71
2021/12/02 04:43:36;;;;;;;1999.90;999.90;;;;;;;-1.13;56.02;98949.81;4905057;28;96821;-73
2021/12/02 04:46:05;;;;;;;1999.90;999.90;;;;;;;-1.13;56.52;98952.44;4893469;28;96979;-71
2021/12/02 04:48:33;;;;;;;1999.90;999.90;;;;;;;-1.15;56.18;98954.09;4896635;28;101011;-71
2021/12/02 04:51:01;;;;;;;1999.90;999.90;;;;;;;-1.15;56.16;98951.47;4870445;28;98499;-72
2021/12/02 04:53:29;;;;;;;1999.90;999.90;;;;;;;-1.15;56.45;98965.44;4885961;28;97351;-73
2021/12/02 04:55:56;;;;;;;1999.90;999.90;;;;;;;-1.16;56.39;98968.00;4904640;28;97012;-70
2021/12/02 04:58:24;;;;;;;1999.90;999.90;;;;;;;-1.16;56.13;98963.63;4902827;28;98862;-72
2021/12/02 05:00:52;;;;;;;1999.90;999.90;;;;;;;-1.19;56.44;98962.63;4889460;28;99511;-74
2021/12/02 05:03:21;;;;;;;1999.90;999.90;;;;;;;-1.23;55.90;98964.22;4896208;28;96904;-72
2021/12/02 05:05:50;;;;;;;1999.90;999.90;;;;;;;-1.23;56.19;98974.66;4885348;28;98004;-73
2021/12/02 05:08:17;;;;;;;1999.90;999.90;;;;;;;-1.23;56.25;98981.63;4904991;28;98911;-74
2021/12/02 05:10:45;;;;;;;1999.90;999.90;;;;;;;-1.22;56.20;98999.03;4903673;28;97471;-68
2021/12/02 05:13:13;;;;;;;1999.90;999.90;;;;;;;-1.18;56.28;99008.78;4903344;28;97521;-69
2021/12/02 05:15:41;;;;;;;1999.90;999.90;;;;;;;-1.14;56.30;99011.56;4887904;28;97651;-68
2021/12/02 05:18:09;;;;;;;1999.90;999.90;;;;;;;-1.12;56.24;99009.91;4904981;28;99021;-67
2021/12/02 05:20:38;;;;;;;1999.90;999.90;;;;;;;-1.12;56.51;99016.81;4905164;28;97634;-69
2021/12/02 05:23:06;;;;;;;1999.90;999.90;;;;;;;-1.13;56.35;99017.66;4904789;28;97703;-69
2021/12/02 05:25:34;;;;;;;1999.90;999.90;;;;;;;-1.13;56.46;99025.50;4905428;28;97939;-69
2021/12/02 05:28:01;;;;;;;1999.90;999.90;;;;;;;-1.14;56.63;99031.56;4904602;28;98777;-68
2021/12/02 05:30:29;;;;;;;1999.90;999.90;;;;;;;-1.34;58.29;99022.06;4887574;28;98199;-70
2021/12/02 05:32:58;;;;;;;1999.90;999.90;;;;;;;-1.45;57.27;99037.25;4904599;28;98084;-68
2021/12/02 05:35:26;;;;;;;1999.90;999.90;;;;;;;-1.56;57.91;99037.66;4887023;28;98046;-68
2021/12/02 05:37:55;;;;;;;1999.90;999.90;;;;;;;-1.62;57.41;99032.19;4903519;28;97748;-68
2021/12/02 05:40:23;;;;;;;1999.90;999.90;;;;;;;-1.71;57.84;99037.91;4903381;28;97822;-71
2021/12/02 05:42:50;;;;;;;1999.90;999.90;;;;;;;-1.79;58.15;99039.31;4903575;28;97953;-68
2021/12/02 05:45:18;;;;;;;1999.90;999.90;;;;;;;-1.82;58.69;99058.31;4880242;28;98698;-70
2021/12/02 05:47:46;;;;;;;1999.90;999.90;;;;;;;-1.85;58.44;99050.38;4870271;28;97099;-71
2021/12/02 05:50:14;;;;;;;1999.90;999.90;;;;;;;-1.82;57.94;99047.00;4905255;28;97506;-71
2021/12/02 05:52:42;;;;;;;1999.90;999.90;;;;;;;-1.83;58.72;99053.03;4902181;28;97205;-70
2021/12/02 05:55:11;;;;;;;1999.90;999.90;;;;;;;-1.86;58.09;99051.19;4905822;28;96922;-70
2021/12/02 05:57:39;;;;;;;1999.90;999.90;;;;;;;-1.84;57.95;99051.25;4903920;28;98126;-70
2021/12/02 06:00:09;;;;;;;1999.90;999.90;;;;;;;-1.83;58.69;99062.59;4903424;28;97752;-69
2021/12/02 06:02:39;;;;;;;1999.90;999.90;;;;;;;-1.82;58.98;99069.56;4903811;28;97020;-73
2021/12/02 06:05:08;;;;;;;1999.90;999.90;;;;;;;-1.79;58.54;99065.38;4905377;28;97028;-69
2021/12/02 06:07:37;;;;;;;1999.90;999.90;;;;;;;-1.78;58.08;99077.59;4883025;28;100335;-69
2021/12/02 06:10:06;;;;;;;1999.90;999.90;;;;;;;-1.73;58.65;99080.38;4902067;28;100800;-72
2021/12/02 06:12:35;;;;;;;1999.90;999.90;;;;;;;-1.70;57.87;99081.41;4906823;28;96827;-69
2021/12/02 06:15:03;;;;;;;1999.90;999.90;;;;;;;-1.70;57.91;99090.94;4905628;28;97146;-70
2021/12/02 06:17:32;;;;;;;1999.90;999.90;;;;;;;-1.68;58.52;99092.78;4908446;28;97858;-70
2021/12/02 06:20:00;;;;;;;1999.90;999.90;;;;;;;-1.63;57.94;99103.44;4906264;28;98608;-73
2021/12/02 06:22:28;;;;;;;1999.90;999.90;;;;;;;-1.61;58.07;99104.34;4891028;28;96913;-76
2021/12/02 06:25:15;;;;;;;1999.90;999.90;;;;;;;-1.60;58.07;99094.00;4890419;28;96925;-70
2021/12/02 06:27:47;;;;;;;1999.90;999.90;;;;;;;-1.63;58.00;99093.00;4906267;28;97778;-71
2021/12/02 06:30:17;;;;;;;1999.90;999.90;;;;;;;-1.61;57.64;99099.13;4906807;28;97427;-74
2021/12/02 06:32:44;;;;;;;1999.90;999.90;;;;;;;-1.61;58.07;99107.84;4908120;28;96827;-76
2021/12/02 06:35:12;;;;;;;1999.90;999.90;;;;;;;-1.58;58.03;99114.94;4907419;28;97322;-72
2021/12/02 06:37:40;;;;;;;1999.90;999.90;;;;;;;-1.56;57.84;99110.69;4890490;28;99321;-73
2021/12/02 06:40:10;;;;;;;1999.90;999.90;;;;;;;-1.57;57.21;99109.78;4910373;28;98966;-70
2021/12/02 06:42:37;;;;;;;1999.90;999.90;;;;;;;-1.59;58.11;99120.97;4914635;28;97257;-70
2021/12/02 06:45:11;;;;;;;1999.90;999.90;;;;;;;-1.62;57.94;99120.84;4907259;28;97151;-71
2021/12/02 06:47:43;;;;;;;1999.90;999.90;;;;;;;-1.60;57.97;99122.69;4916005;28;97940;-71
2021/12/02 06:50:16;;;;;;;1999.90;999.90;;;;;;;-1.61;58.19;99135.66;4916195;28;97653;-72
2021/12/02 06:52:45;;;;;;;1999.90;999.90;;;;;;;-1.62;57.77;99141.69;4914308;28;96933;-72
2021/12/02 06:55:13;;;;;;;1999.90;999.90;;;;;;;-1.67;57.08;99138.91;4892978;28;97310;-72
2021/12/02 06:57:41;;;;;;;1999.90;999.90;;;;;;;-1.70;57.57;99149.19;4895015;28;98790;-72
2021/12/02 07:00:13;;;;;;;1999.90;999.90;;;;;;;-1.70;57.42;99150.88;4912974;28;97621;-72
2021/12/02 07:02:41;;;;;;;1999.90;999.90;;;;;;;-1.72;57.44;99158.66;4911319;28;96900;-74
2021/12/02 07:05:12;;;;;;;1999.90;999.90;;;;;;;-1.74;57.67;99172.47;4911280;28;96870;-70
2021/12/02 07:07:40;;;;;;;1999.90;999.90;;;;;;;-1.74;57.50;99168.13;4900432;28;98475;-71
2021/12/02 07:10:09;;;;;;;1999.90;999.90;;;;;;;-1.76;57.40;99172.38;4907855;28;98988;-71
2021/12/02 07:12:39;;;;;;;1999.90;999.90;;;;;;;-1.76;57.38;99179.31;4907073;28;98316;-72
2021/12/02 07:15:14;;;;;;;1999.90;999.90;;;;;;;-1.75;57.13;99196.72;4906786;28;97213;-70
2021/12/02 07:17:45;;;;;;;1999.90;999.90;;;;;;;-1.77;57.46;99187.94;4906508;28;98521;-73
2021/12/02 07:20:13;;;;;;;1999.90;999.90;;;;;;;-1.75;57.71;99192.41;4905306;28;98875;-71
2021/12/02 07:22:41;;;;;;;1999.90;999.90;;;;;;;-1.75;57.24;99200.25;4904990;28;97274;-71
2021/12/02 07:25:09;;;;;;;1999.90;999.90;;;;;;;-1.73;57.01;99208.13;4904639;28;97220;-70
2021/12/02 07:27:37;;;;;;;1999.90;999.90;;;;;;;-1.72;57.13;99204.72;4905966;28;99228;-71
2021/12/02 07:30:07;;;;;;;1999.90;999.90;;;;;;;-1.73;56.73;99214.25;4906599;28;98233;-71
2021/12/02 07:32:39;;;;;;;1999.90;999.90;;;;;;;-1.75;56.26;99220.19;4889576;28;96848;-70
2021/12/02 07:35:12;;;;;;;1999.90;999.90;;;;;;;-1.79;56.60;99221.78;4907533;28;97717;-72
2021/12/02 07:37:42;;;;;;;1999.90;999.90;;;;;;;-1.83;56.41;99222.44;4905116;28;97703;-72
2021/12/02 07:40:10;;;;;;;1999.90;999.90;;;;;;;-1.87;55.54;99233.59;4892292;28;101035;-70
2021/12/02 07:42:38;;;;;;;1999.90;999.90;;;;;;;-1.92;56.38;99225.56;4892277;28;96978;-72
2021/12/02 07:45:08;;;;;;;1999.90;999.90;;;;;;;-1.89;56.56;99233.50;4884113;28;98175;-71
2021/12/02 07:47:39;;;;;;;1999.90;999.90;;;;;;;-1.92;56.46;99230.75;4900159;28;98493;-71
2021/12/02 07:50:08;;;;;;;1999.90;999.90;;;;;;;-1.90;55.76;99223.91;4886631;28;100006;-73
2021/12/02 07:52:41;;;;;;;1999.90;999.90;;;;;;;-1.89;56.31;99225.69;4903566;28;98850;-71
2021/12/02 07:55:10;;;;;;;1999.90;999.90;;;;;;;-1.88;56.10;99232.69;4904851;28;97105;-71
2021/12/02 07:57:40;;;;;;;1999.90;999.90;;;;;;;-1.91;55.41;99229.06;4890938;28;101257;-75
2021/12/02 08:00:09;;;;;;;1999.90;999.90;;;;;;;-1.92;55.74;99229.84;4907827;28;97743;-72
2021/12/02 08:02:37;;;;;;;1999.90;999.90;;;;;;;-1.90;55.93;99236.03;4905867;28;99621;-72
2021/12/02 08:05:06;;;;;;;1999.90;999.90;;;;;;;-1.95;54.74;99235.84;4888691;28;98743;-73
2021/12/02 08:07:34;;;;;;;1999.90;999.90;;;;;;;-1.93;55.34;99228.09;4905961;28;97580;-70
2021/12/02 08:10:03;;;;;;;1999.90;999.90;;;;;;;-1.95;54.79;99251.47;4896146;28;98009;-70
2021/12/02 08:12:31;;;;;;;1999.90;999.90;;;;;;;-1.97;54.84;99244.41;4889948;28;97070;-72
2021/12/02 08:14:59;;;;;;;1999.90;999.90;;;;;;;-2.00;54.91;99242.53;4888918;28;96828;-72
2021/12/02 08:17:27;;;;;;;1999.90;999.90;;;;;;;-2.02;55.56;99254.63;4888747;28;97793;-74
2021/12/02 08:19:54;;;;;;;1999.90;999.90;;;;;;;-2.05;55.06;99257.06;4905024;28;98702;-74
2021/12/02 08:22:22;;;;;;;1999.90;999.90;;;;;;;-2.11;55.20;99258.53;4904270;28;96928;-69
2021/12/02 08:24:50;;;;;;;1999.90;999.90;;;;;;;-2.10;55.31;99258.59;4904508;28;96943;-71
2021/12/02 08:27:19;;;;;;;1999.90;999.90;;;;;;;-2.11;55.18;99261.13;4905480;28;98778;-74
2021/12/02 08:29:47;;;;;;;1999.90;999.90;;;;;;;-2.11;55.89;99264.59;4887728;28;100654;-69
2021/12/02 08:32:15;;;;;;;1999.90;999.90;;;;;;;-2.11;55.38;99275.03;4904822;28;98230;-68
2021/12/02 08:34:43;;;;;;;1999.90;999.90;;;;;;;-2.09;55.70;99283.81;4905333;28;97257;-70
2021/12/02 08:37:11;;;;;;;1999.90;999.90;;;;;;;-2.04;55.79;99287.53;4892742;28;99206;-71
2021/12/02 08:39:41;;;;;;;1999.90;999.90;;;;;;;-1.99;56.14;99286.03;4903877;28;97773;-70
2021/12/02 08:42:09;;;;;;;1999.90;999.90;;;;;;;-1.92;55.87;99289.81;4904117;28;96860;-73
2021/12/02 08:44:41;;;;;;;1999.90;999.90;;;;;;;-1.87;55.66;99283.13;4906292;28;96955;-69
2021/12/02 08:47:09;;;;;;;1999.90;999.90;;;;;;;-1.82;55.77;99288.53;4906204;28;98853;-71
2021/12/02 08:49:37;;;;;;;1999.90;999.90;;;;;;;-1.82;54.92;99298.13;4888220;28;100628;-72
2021/12/02 08:52:05;;;;;;;1999.90;999.90;;;;;;;-1.82;54.98;99295.50;4905576;28;97058;-73
2021/12/02 08:54:33;;;;;;;1999.90;999.90;;;;;;;-1.78;55.68;99298.28;4888381;28;96737;-74
2021/12/02 08:57:02;;;;;;;1999.90;999.90;;;;;;;-1.77;55.26;99307.88;4904585;28;97606;-71
2021/12/02 08:59:30;;;;;;;1999.90;999.90;;;;;;;-1.76;55.01;99315.75;4879763;28;100862;-76
2021/12/02 09:01:59;;;;;;;1999.90;999.90;;;;;;;-1.75;55.21;99314.03;4905251;28;96816;-71
2021/12/02 09:04:27;;;;;;;1999.90;999.90;;;;;;;-1.74;54.69;99327.16;4887638;28;96896;-70
2021/12/02 09:06:55;;;;;;;1999.90;999.90;;;;;;;-1.72;55.21;99322.91;4905188;28;97686;-73
2021/12/02 09:09:25;;;;;;;1999.90;999.90;;;;;;;-1.69;54.46;99332.59;4904447;28;97547;-72
2021/12/02 09:11:54;;;;;;;1999.90;999.90;;;;;;;-1.67;54.59;99341.38;4904149;28;96995;-72
2021/12/02 09:14:22;;;;;;;1999.90;999.90;;;;;;;-1.64;54.88;99339.81;4889549;28;96903;-71
2021/12/02 09:16:51;;;;;;;1999.90;999.90;;;;;;;-1.62;53.59;99351.19;4903755;28;97664;-70
2021/12/02 09:19:20;;;;;;;1999.90;999.90;;;;;;;-1.58;54.68;99347.00;4904608;28;97609;-70
2021/12/02 09:21:48;;;;;;;1999.90;999.90;;;;;;;-1.56;53.92;99347.97;4903348;28;97685;-69
2021/12/02 09:24:19;;;;;;;1999.90;999.90;;;;;;;-1.59;53.41;99343.50;4905310;28;96908;-70
2021/12/02 09:26:47;;;;;;;1999.90;999.90;;;;;;;-1.56;53.85;99354.06;4904534;28;97594;-70
2021/12/02 09:29:16;;;;;;;1999.90;999.90;;;;;;;-1.55;54.07;99358.47;4904710;28;97693;-72
2021/12/02 09:31:44;;;;;;;1999.90;999.90;;;;;;;-1.54;52.90;99364.59;4904526;28;96648;-73
2021/12/02 09:34:12;;;;;;;1999.90;999.90;;;;;;;-1.59;53.28;99355.63;4903853;28;97987;-72
2021/12/02 09:36:42;;;;;;;1999.90;999.90;;;;;;;-1.61;52.69;99367.72;4904548;28;98710;-73
2021/12/02 09:39:13;;;;;;;1999.90;999.90;;;;;;;-1.61;52.46;99358.19;4905717;28;98684;-72
2021/12/02 09:41:41;;;;;;;1999.90;999.90;;;;;;;-1.61;52.62;99352.97;4888227;28;97849;-70
2021/12/02 09:44:09;;;;;;;1999.90;999.90;;;;;;;-1.58;53.19;99353.13;4901123;28;97684;-70
2021/12/02 09:46:39;;;;;;;1999.90;999.90;;;;;;;-1.54;53.27;99351.56;4882772;28;100261;-71
2021/12/02 09:49:08;;;;;;;1999.90;999.90;;;;;;;-1.54;52.49;99364.59;4883678;28;100766;-71
2021/12/02 09:51:44;;;;;;;1999.90;999.90;;;;;;;-1.54;52.96;99357.63;4884519;28;97197;-69
2021/12/02 09:54:24;;;;;;;1999.90;999.90;;;;;;;-1.62;51.91;99351.19;4905449;28;97210;-72
2021/12/02 09:56:55;;;;;;;1999.90;999.90;;;;;;;-1.56;52.33;99355.81;4889965;28;98798;-68
2021/12/02 09:59:26;;;;;;;1999.90;999.90;;;;;;;-1.54;52.18;99354.16;4890674;28;97794;-71
2021/12/02 10:01:58;;;;;;;1999.90;999.90;;;;;;;-1.54;52.10;99354.16;4907721;28;96866;-68
2021/12/02 10:04:27;;;;;;;1999.90;999.90;;;;;;;-1.48;52.73;99357.03;4923421;28;96964;-69
2021/12/02 10:07:11;;;;;;;1999.90;999.90;;;;;;;-1.50;50.39;99346.53;4908022;28;97690;-71
2021/12/02 10:09:43;;;;;;;1999.90;999.90;;;;;;;-1.43;52.87;99345.13;4897242;28;97000;-70
2021/12/02 10:12:22;;;;;;;1999.90;999.90;;;;;;;-1.47;51.56;99345.78;4907365;28;97314;-69
2021/12/02 10:14:51;;;;;;;1999.90;999.90;;;;;;;-1.43;52.89;99345.97;4907743;28;96945;-71
2021/12/02 10:17:24;;;;;;;1999.90;999.90;;;;;;;-1.42;52.34;99354.72;4889744;28;99289;-68
2021/12/02 10:20:12;;;;;;;1999.90;999.90;;;;;;;-1.47;47.77;99353.63;4906971;28;97446;-68
2021/12/02 10:22:40;;;;;;;1999.90;999.90;;;;;;;-1.42;51.94;99354.72;4893257;28;96821;-67
2021/12/02 10:25:10;;;;;;;1999.90;999.90;;;;;;;-1.38;52.60;99351.44;4888911;28;96750;-71
2021/12/02 10:28:01;;;;;;;1999.90;999.90;;;;;;;-1.35;51.29;99360.28;4890008;28;98463;-71
2021/12/02 10:30:29;;;;;;;1999.90;999.90;;;;;;;-1.30;51.88;99366.59;4896614;28;99559;-70
2021/12/02 10:32:57;;;;;;;1999.90;999.90;;;;;;;-1.23;52.65;99360.81;4908349;28;97573;-69
2021/12/02 10:35:38;;;;;;;1999.90;999.90;;;;;;;-1.21;51.06;99360.88;4907796;28;96865;-69
2021/12/02 10:38:06;;;;;;;1999.90;999.90;;;;;;;-1.13;52.49;99360.44;4908303;28;97975;-69
2021/12/02 10:40:36;;;;;;;1999.90;999.90;;;;;;;-1.07;51.90;99365.91;4889189;28;100419;-71
2021/12/02 10:43:09;;;;;;;1999.90;999.90;;;;;;;-1.04;51.98;99362.53;4906909;28;97595;-71
2021/12/02 10:45:37;;;;;;;1999.90;999.90;;;;;;;-0.99;52.42;99359.31;4909449;28;97671;-72
2021/12/02 10:48:05;;;;;;;1999.90;999.90;;;;;;;-0.97;51.18;99364.59;4923415;28;97534;-69
2021/12/02 10:50:39;;;;;;;1999.90;999.90;;;;;;;-0.92;51.55;99373.50;4909974;28;98033;-77
2021/12/02 10:53:06;;;;;;;1999.90;999.90;;;;;;;-0.91;51.61;99371.00;4927164;28;96892;-69
2021/12/02 10:55:35;;;;;;;1999.90;999.90;;;;;;;-0.87;51.54;99372.00;4904373;28;97387;-72
2021/12/02 10:58:03;;;;;;;1999.90;999.90;;;;;;;-0.84;51.83;99372.13;4916248;28;97419;-70
2021/12/02 11:00:35;;;;;;;1999.90;999.90;;;;;;;-0.86;50.92;99377.28;4914855;28;96870;-70
2021/12/02 11:03:09;;;;;;;1999.90;999.90;;;;;;;-0.86;51.01;99381.63;4913115;28;96664;-70
2021/12/02 11:05:45;;;;;;;1999.90;999.90;;;;;;;-0.86;50.95;99382.53;4908681;28;96776;-71
2021/12/02 11:08:15;;;;;;;1999.90;999.90;;;;;;;-0.84;51.50;99390.41;4907593;28;98579;-70
2021/12/02 11:10:46;;;;;;;1999.90;999.90;;;;;;;-0.86;50.60;99392.97;4906794;28;97483;-73
2021/12/02 11:13:19;;;;;;;1999.90;999.90;;;;;;;-0.85;51.07;99399.09;4905767;28;97413;-69